Zimba D. Pedro I Heliport

BR-0129 · São Paulo, 巴西

使用的METAR站距离机场41 km。
罗盘
风向 的 风向 的 风向 到 风向 360° 直升机
风: 4 kt, 2 beaufort
0 ft 1.000 2.000 3.000 4.000 5.000
CAVOK
METAR SBKP 281200Z 36004KT 330V040 CAVOK 27/22 Q1015

METAR Zimba D. Pedro I Heliport - BR-0129

Zimba D. Pedro I Heliport是,巴西中的直升机场。 该机场位于纬度-23,03379和经度-46,73359。 这个机场没有ICAO代码,我们使用BR-0129作为参考。 机场在Brasilia FIR中。

该航空气象观测是针对Viracopos International Airport在2024年2月28日 09:00, 当地时间进行的。

机场观察

风向为360°,速度为4 kt。 风向在330°和040°之间变化。

天气为CAVOK。这意味着在5.000 ft或MSA(最低安全高度)以下(以较高者为准)以下没有云。这也意味着没有观测到积雨云或高耸的积云,可见度为10 km 或者更多或更高。此外,不会有雾,降雨或其他重要天气。

温度和风寒是27 °C。 热指数为29。 露点为22 °C,相对湿度为74%。 海平面上的气压为1015 hPa (QNH)。

白天

今天,太阳从06:02升起,在18:36降落。 这适用于Zimba D. Pedro I Heliport,世界夏令时可能有所不同。 当地时间与世界标准时间之间的时差为-3 小时。 当前,没有夏令时有效。

公司介绍

我们没有关于这个机场的公司信息。

体会

到Vliegles.nl去找飞行课程,跳伞和其他飞行体验。 浏览页面,了解Zimba D. Pedro I Heliport附近所有可用的活动。 你也可以使用搜索功能来寻找你所在地附近的特定飞行课程、跳伞或其他飞行体验。

温度 & 天气

温度 27 °C
露点 22 °C
相对湿度 74%
热度指数 29 °C
Kp-index 0 (0-9)

白天

日出
06:03
中午
12:21
日落
18:38 (9:29)

小工具

你想在你的网站上有一个关于Zimba D. Pedro I Heliport的当前航空天气(METAR)的小部件吗?

显示HTML代码
?>